Time;durP1;ratioP1;P1;durP2;ratioP2;P2;SDS_P1;SDS_P2;PMS_P1;PMS_P2;Temp;Humidity;BMP_temperature;BMP_pressure;BME280_temperature;BME280_humidity;BME280_pressure;Samples;Min_cycle;Max_cycle;Signal;HPM_P1;HPM_P2
2022/06/05 00:02:21;;;;;;;;;;;17.90;99.90;;;;;;5086157;28;19956;-67
2022/06/05 00:04:51;;;;;;;;;;;17.80;99.90;;;;;;5086702;28;19927;-67
2022/06/05 00:07:22;;;;;;;;;;;17.80;99.90;;;;;;5085387;28;19983;-67
2022/06/05 00:09:51;;;;;;;;;;;17.80;99.90;;;;;;5086135;28;19920;-67
2022/06/05 00:12:19;;;;;;;;;;;17.70;99.90;;;;;;5085841;28;19946;-67
2022/06/05 00:14:46;;;;;;;;;;;17.70;99.90;;;;;;5085716;28;19927;-67
2022/06/05 00:17:15;;;;;;;;;;;17.70;99.90;;;;;;5085296;28;19962;-68
2022/06/05 00:19:45;;;;;;;;;;;17.60;99.90;;;;;;5086236;28;20230;-67
2022/06/05 00:22:12;;;;;;;;;;;17.60;99.90;;;;;;5085962;28;19955;-67
2022/06/05 00:24:38;;;;;;;;;;;17.60;99.90;;;;;;5085957;28;19951;-67
2022/06/05 00:27:08;;;;;;;;;;;17.50;99.90;;;;;;5085304;28;19920;-68
2022/06/05 00:29:40;;;;;;;;;;;17.50;99.90;;;;;;5085637;28;19920;-67
2022/06/05 00:32:10;;;;;;;;;;;17.60;99.90;;;;;;5085973;28;19924;-67
2022/06/05 00:34:37;;;;;;;;;;;17.50;99.90;;;;;;5096677;28;19920;-68
2022/06/05 00:37:17;;;;;;;;;;;17.50;99.90;;;;;;5100266;28;19948;-68
2022/06/05 00:39:46;;;;;;;;;;;17.50;99.90;;;;;;5105988;28;19920;-67
2022/06/05 00:42:16;;;;;;;;;;;17.50;99.90;;;;;;5105620;28;20176;-68
2022/06/05 00:44:44;;;;;;;;;;;17.50;99.90;;;;;;5092086;28;19988;-67
2022/06/05 00:47:12;;;;;;;;;;;17.40;99.90;;;;;;5085088;28;19927;-67
2022/06/05 00:49:41;;;;;;;;;;;17.40;99.90;;;;;;5065307;28;19920;-67
2022/06/05 00:52:08;;;;;;;;;;;17.30;99.90;;;;;;5065218;28;19921;-67
2022/06/05 00:54:36;;;;;;;;;;;17.30;99.90;;;;;;5062785;28;19933;-67
2022/06/05 00:57:06;;;;;;;;;;;17.30;99.90;;;;;;5062919;28;19999;-67
2022/06/05 00:59:32;;;;;;;;;;;17.30;99.90;;;;;;5065390;28;19967;-68
2022/06/05 01:01:59;;;;;;;;;;;17.30;99.90;;;;;;5065302;28;19956;-68
2022/06/05 01:04:27;;;;;;;;;;;17.30;99.90;;;;;;5065577;28;19927;-68
2022/06/05 01:06:53;;;;;;;;;;;17.30;99.90;;;;;;5064377;28;19924;-66
2022/06/05 01:09:20;;;;;;;;;;;17.30;99.90;;;;;;5064929;28;19952;-68
2022/06/05 01:11:52;;;;;;;;;;;17.30;99.90;;;;;;5064882;28;19940;-68
2022/06/05 01:14:22;;;;;;;;;;;17.30;99.90;;;;;;5064911;28;19987;-67
2022/06/05 01:16:53;;;;;;;;;;;17.30;99.90;;;;;;5064099;28;19921;-68
2022/06/05 01:19:29;;;;;;;;;;;17.20;99.90;;;;;;5068735;28;19921;-67
2022/06/05 01:22:07;;;;;;;;;;;17.20;99.90;;;;;;5064717;28;19967;-67
2022/06/05 01:24:42;;;;;;;;;;;17.10;99.90;;;;;;5064526;28;20231;-67
2022/06/05 01:27:12;;;;;;;;;;;17.10;99.90;;;;;;5064230;28;19920;-67
2022/06/05 01:29:41;;;;;;;;;;;17.10;99.90;;;;;;5064742;28;19959;-68
2022/06/05 01:32:09;;;;;;;;;;;17.10;99.90;;;;;;5064433;28;19925;-67
2022/06/05 01:34:40;;;;;;;;;;;17.00;99.90;;;;;;5064417;28;19928;-67
2022/06/05 01:37:09;;;;;;;;;;;16.90;99.90;;;;;;5063815;28;19952;-67
2022/06/05 01:39:39;;;;;;;;;;;16.90;99.90;;;;;;5064438;28;20244;-67
2022/06/05 01:42:07;;;;;;;;;;;16.80;99.90;;;;;;5063563;28;20219;-68
2022/06/05 01:44:37;;;;;;;;;;;16.80;99.90;;;;;;5064037;28;19963;-67
2022/06/05 01:47:06;;;;;;;;;;;16.80;99.90;;;;;;5063813;28;19928;-67
2022/06/05 01:49:36;;;;;;;;;;;16.70;99.90;;;;;;5064957;28;19988;-67
2022/06/05 01:52:04;;;;;;;;;;;16.70;99.90;;;;;;5064513;28;19952;-67
2022/06/05 01:54:34;;;;;;;;;;;16.70;99.90;;;;;;5063980;28;19928;-67
2022/06/05 01:57:04;;;;;;;;;;;16.70;99.90;;;;;;5061143;28;19967;-67
2022/06/05 01:59:34;;;;;;;;;;;16.70;99.90;;;;;;5064136;28;19928;-67
2022/06/05 02:02:04;;;;;;;;;;;16.70;99.90;;;;;;5064450;28;19952;-68
2022/06/05 02:04:34;;;;;;;;;;;16.70;99.90;;;;;;5071761;28;19920;-68
2022/06/05 02:07:04;;;;;;;;;;;16.70;99.90;;;;;;5063389;28;19920;-67
2022/06/05 02:09:34;;;;;;;;;;;16.60;99.90;;;;;;5063949;28;20148;-68
2022/06/05 02:12:02;;;;;;;;;;;16.60;99.90;;;;;;5063497;28;19943;-67
2022/06/05 02:14:28;;;;;;;;;;;16.50;99.90;;;;;;5063643;28;19927;-67
2022/06/05 02:16:55;;;;;;;;;;;16.50;99.90;;;;;;5064826;28;19927;-67
2022/06/05 02:19:23;;;;;;;;;;;16.50;99.90;;;;;;5083793;28;19952;-67
2022/06/05 02:21:51;;;;;;;;;;;16.50;99.90;;;;;;5083657;28;19955;-67
2022/06/05 02:24:18;;;;;;;;;;;16.50;99.90;;;;;;5073596;28;19921;-67
2022/06/05 02:26:45;;;;;;;;;;;16.50;99.90;;;;;;5063125;28;20220;-67
2022/06/05 02:29:13;;;;;;;;;;;16.40;99.90;;;;;;5063537;28;19920;-67
2022/06/05 02:31:43;;;;;;;;;;;16.40;99.90;;;;;;5065889;28;19921;-67
2022/06/05 02:34:14;;;;;;;;;;;16.40;99.90;;;;;;5063298;28;19927;-67
2022/06/05 02:36:49;;;;;;;;;;;16.40;99.90;;;;;;5064306;28;19959;-67
2022/06/05 02:39:19;;;;;;;;;;;16.30;99.90;;;;;;5083478;28;19927;-68
2022/06/05 02:41:50;;;;;;;;;;;16.30;99.90;;;;;;5083405;28;19958;-67
2022/06/05 02:44:31;;;;;;;;;;;16.30;99.90;;;;;;5074254;28;19921;-67
2022/06/05 02:47:03;;;;;;;;;;;16.30;99.90;;;;;;5062649;28;19921;-67
2022/06/05 02:49:32;;;;;;;;;;;16.20;99.90;;;;;;5062921;28;19928;-67
2022/06/05 02:52:06;;;;;;;;;;;16.20;99.90;;;;;;5063347;28;20227;-68
2022/06/05 02:54:32;;;;;;;;;;;16.20;99.90;;;;;;5063286;28;19927;-68
2022/06/05 02:56:59;;;;;;;;;;;16.10;99.90;;;;;;5059875;28;19952;-67
2022/06/05 02:59:26;;;;;;;;;;;16.10;99.90;;;;;;5063486;28;19930;-67
2022/06/05 03:04:36;;;;;;;;;;;16.10;99.90;;;;;;5062887;28;19928;-66
2022/06/05 03:07:05;;;;;;;;;;;16.10;99.90;;;;;;5062772;28;19975;-67
2022/06/05 03:09:31;;;;;;;;;;;16.10;99.90;;;;;;5063116;28;19963;-67
2022/06/05 03:11:58;;;;;;;;;;;16.00;99.90;;;;;;5062852;28;19940;-67
2022/06/05 03:14:25;;;;;;;;;;;16.10;99.90;;;;;;5063046;28;19989;-67
2022/06/05 03:16:52;;;;;;;;;;;16.10;99.90;;;;;;5062364;28;19927;-67
2022/06/05 03:19:19;;;;;;;;;;;16.10;99.90;;;;;;5063184;28;20113;-67
2022/06/05 03:21:45;;;;;;;;;;;16.10;99.90;;;;;;5063023;28;20123;-67
2022/06/05 03:24:13;;;;;;;;;;;16.00;99.90;;;;;;5062733;28;19921;-67
2022/06/05 03:26:40;;;;;;;;;;;16.00;99.90;;;;;;5062110;28;19921;-67
2022/06/05 03:29:07;;;;;;;;;;;16.00;99.90;;;;;;5063010;28;20119;-66
2022/06/05 03:31:34;;;;;;;;;;;16.00;99.90;;;;;;5063104;28;19920;-67
2022/06/05 03:34:01;;;;;;;;;;;15.90;99.90;;;;;;5062823;28;19928;-67
2022/06/05 03:36:28;;;;;;;;;;;15.90;99.90;;;;;;5073587;28;20124;-67
2022/06/05 03:38:54;;;;;;;;;;;15.90;99.90;;;;;;5082852;28;19928;-67
2022/06/05 03:41:22;;;;;;;;;;;16.00;99.90;;;;;;5083140;28;19920;-67
2022/06/05 03:43:49;;;;;;;;;;;16.00;99.90;;;;;;5079345;28;19955;-68
2022/06/05 03:46:16;;;;;;;;;;;15.90;99.90;;;;;;5062215;28;19920;-67
2022/06/05 03:48:43;;;;;;;;;;;15.90;99.90;;;;;;5063101;28;19987;-68
2022/06/05 03:51:10;;;;;;;;;;;15.90;99.90;;;;;;5062982;28;20222;-67
2022/06/05 03:53:38;;;;;;;;;;;15.90;99.90;;;;;;5062518;28;19952;-68
2022/06/05 03:56:07;;;;;;;;;;;15.90;99.90;;;;;;5059759;28;19943;-67
2022/06/05 03:58:35;;;;;;;;;;;15.90;99.90;;;;;;5061196;28;19967;-67
2022/06/05 04:01:02;;;;;;;;;;;16.00;99.90;;;;;;5062884;28;20171;-67
2022/06/05 04:03:29;;;;;;;;;;;16.00;99.90;;;;;;5062280;28;20263;-67
2022/06/05 04:05:55;;;;;;;;;;;16.10;99.90;;;;;;5064581;28;19928;-67
2022/06/05 04:08:22;;;;;;;;;;;16.10;99.90;;;;;;5063663;28;19955;-67
2022/06/05 04:10:48;;;;;;;;;;;16.10;99.90;;;;;;5064339;28;20035;-67
2022/06/05 04:13:15;;;;;;;;;;;16.20;99.90;;;;;;5065860;28;19959;-67
2022/06/05 04:15:43;;;;;;;;;;;16.20;99.90;;;;;;5065282;28;19921;-67
2022/06/05 04:18:10;;;;;;;;;;;16.30;99.90;;;;;;5066092;28;19921;-68
2022/06/05 04:20:38;;;;;;;;;;;16.30;99.90;;;;;;5084367;28;19921;-67
2022/06/05 04:23:05;;;;;;;;;;;16.30;99.90;;;;;;5084989;28;19921;-67
2022/06/05 04:25:31;;;;;;;;;;;16.40;99.90;;;;;;5083196;28;19928;-67
2022/06/05 04:27:58;;;;;;;;;;;16.40;99.90;;;;;;5085015;28;19940;-68
2022/06/05 04:30:26;;;;;;;;;;;16.50;99.90;;;;;;5075725;28;20036;-67
2022/06/05 04:32:54;;;;;;;;;;;16.50;99.90;;;;;;5065452;28;19987;-67
2022/06/05 04:35:21;;;;;;;;;;;16.50;99.90;;;;;;5062927;28;19952;-67
2022/06/05 04:37:47;;;;;;;;;;;16.50;99.90;;;;;;5065205;28;19967;-67
2022/06/05 04:40:14;;;;;;;;;;;16.50;99.90;;;;;;5065046;28;19955;-67
2022/06/05 04:42:41;;;;;;;;;;;16.50;99.90;;;;;;5071050;28;19951;-68
2022/06/05 04:45:09;;;;;;;;;;;16.60;99.90;;;;;;5064854;28;20906;-65
2022/06/05 04:47:36;;;;;;;;;;;16.50;99.90;;;;;;5065189;28;19967;-67
2022/06/05 04:50:05;;;;;;;;;;;16.50;99.90;;;;;;5064567;28;19975;-67
2022/06/05 04:52:31;;;;;;;;;;;16.50;99.90;;;;;;5063208;28;19991;-67
2022/06/05 04:54:58;;;;;;;;;;;16.50;99.90;;;;;;5064681;28;19956;-68
2022/06/05 04:57:25;;;;;;;;;;;16.50;99.90;;;;;;5062589;28;19952;-67
2022/06/05 04:59:51;;;;;;;;;;;16.50;99.90;;;;;;5065044;28;19928;-67
2022/06/05 05:02:18;;;;;;;;;;;16.60;99.90;;;;;;5064857;28;19962;-67
2022/06/05 05:04:47;;;;;;;;;;;16.60;99.90;;;;;;5062574;28;19975;-67
2022/06/05 05:07:15;;;;;;;;;;;16.60;99.90;;;;;;5064482;28;19992;-67
2022/06/05 05:09:42;;;;;;;;;;;16.70;99.90;;;;;;5064853;28;19988;-67
2022/06/05 05:12:09;;;;;;;;;;;16.70;99.90;;;;;;5064933;28;19948;-67
2022/06/05 05:14:36;;;;;;;;;;;16.80;99.90;;;;;;5064919;28;20270;-67
2022/06/05 05:17:03;;;;;;;;;;;16.80;99.90;;;;;;5063195;28;19929;-67
2022/06/05 05:19:30;;;;;;;;;;;16.90;99.90;;;;;;5064796;28;19956;-66
2022/06/05 05:21:57;;;;;;;;;;;17.00;99.90;;;;;;5065134;28;19952;-67
2022/06/05 05:24:25;;;;;;;;;;;17.00;99.90;;;;;;5064947;28;19988;-67
2022/06/05 05:26:51;;;;;;;;;;;17.10;99.90;;;;;;5066300;28;19992;-67
2022/06/05 05:29:18;;;;;;;;;;;17.20;99.90;;;;;;5064651;28;19956;-68
2022/06/05 05:31:45;;;;;;;;;;;17.20;99.90;;;;;;5064456;28;19958;-65
2022/06/05 05:34:13;;;;;;;;;;;17.30;99.90;;;;;;5064811;28;19932;-66
2022/06/05 05:36:40;;;;;;;;;;;17.40;99.90;;;;;;5064048;28;19928;-66
2022/06/05 05:42:08;;;;;;;;;;;17.50;99.90;;;;;;5064986;28;20107;-66
2022/06/05 05:44:37;;;;;;;;;;;17.60;99.90;;;;;;5064509;28;19927;-66
2022/06/05 05:47:04;;;;;;;;;;;17.70;99.90;;;;;;5063571;28;19921;-66
2022/06/05 05:49:30;;;;;;;;;;;17.70;99.90;;;;;;5064443;28;19987;-66
2022/06/05 05:51:57;;;;;;;;;;;17.70;99.90;;;;;;5063867;28;19949;-65
2022/06/05 05:54:24;;;;;;;;;;;17.70;99.90;;;;;;5064198;28;19921;-66
2022/06/05 05:56:52;;;;;;;;;;;17.70;99.90;;;;;;5063349;28;19921;-65
2022/06/05 05:59:19;;;;;;;;;;;17.70;99.90;;;;;;5064593;28;19927;-66
2022/06/05 06:01:46;;;;;;;;;;;17.80;99.90;;;;;;5064269;28;19920;-65
2022/06/05 06:04:13;;;;;;;;;;;17.80;99.90;;;;;;5064467;28;19992;-66
2022/06/05 06:06:41;;;;;;;;;;;17.80;99.90;;;;;;5063586;28;19929;-66
2022/06/05 06:09:08;;;;;;;;;;;17.80;99.90;;;;;;5064299;28;20112;-65
2022/06/05 06:11:35;;;;;;;;;;;17.80;99.90;;;;;;5063947;28;19958;-66
2022/06/05 06:14:03;;;;;;;;;;;17.80;99.90;;;;;;5064131;28;20242;-65
2022/06/05 06:16:30;;;;;;;;;;;17.90;99.90;;;;;;5063152;28;19971;-65
2022/06/05 06:18:57;;;;;;;;;;;17.80;99.90;;;;;;5063766;28;20120;-66
2022/06/05 06:21:24;;;;;;;;;;;17.90;99.90;;;;;;5064060;28;19948;-65
2022/06/05 06:23:51;;;;;;;;;;;18.00;99.90;;;;;;5080983;28;19954;-66
2022/06/05 06:26:18;;;;;;;;;;;18.00;99.90;;;;;;5077957;28;19955;-66
2022/06/05 06:28:45;;;;;;;;;;;18.00;99.90;;;;;;5063332;28;19921;-65
2022/06/05 06:31:13;;;;;;;;;;;18.10;99.90;;;;;;5063436;28;19955;-66
2022/06/05 06:33:40;;;;;;;;;;;18.10;99.90;;;;;;5063634;28;19992;-65
2022/06/05 06:36:08;;;;;;;;;;;18.10;99.90;;;;;;5062784;28;19949;-65
2022/06/05 06:38:35;;;;;;;;;;;18.20;99.90;;;;;;5063697;28;19929;-66
2022/06/05 06:41:02;;;;;;;;;;;18.30;99.90;;;;;;5063332;28;19921;-65
2022/06/05 06:43:29;;;;;;;;;;;18.30;99.90;;;;;;5063566;28;20254;-65
2022/06/05 06:45:56;;;;;;;;;;;18.30;99.90;;;;;;5062932;28;19997;-66
2022/06/05 06:48:24;;;;;;;;;;;18.40;99.90;;;;;;5063731;28;19959;-65
2022/06/05 06:50:52;;;;;;;;;;;18.40;99.90;;;;;;5063451;28;19952;-66
2022/06/05 06:53:19;;;;;;;;;;;18.40;99.90;;;;;;5043609;28;19929;-66
2022/06/05 06:55:46;;;;;;;;;;;18.50;99.90;;;;;;5051577;28;19921;-66
2022/06/05 06:58:12;;;;;;;;;;;18.50;99.90;;;;;;5063445;28;19928;-66
2022/06/05 07:00:39;;;;;;;;;;;18.50;99.90;;;;;;5063359;28;20201;-64
2022/06/05 07:03:06;;;;;;;;;;;18.50;99.90;;;;;;5063218;28;19952;-67
2022/06/05 07:05:34;;;;;;;;;;;18.50;99.90;;;;;;5065565;28;20286;-65
2022/06/05 07:08:01;;;;;;;;;;;18.50;99.90;;;;;;5079737;28;19921;-64
2022/06/05 07:10:28;;;;;;;;;;;18.50;99.90;;;;;;5083591;28;19987;-64
2022/06/05 07:12:55;;;;;;;;;;;18.50;99.90;;;;;;5082920;28;19928;-64
2022/06/05 07:15:22;;;;;;;;;;;18.50;99.90;;;;;;5070045;28;20260;-65
2022/06/05 07:17:49;;;;;;;;;;;18.50;99.90;;;;;;5062916;28;19964;-64
2022/06/05 07:20:15;;;;;;;;;;;18.50;99.90;;;;;;5062950;28;20124;-65
2022/06/05 07:22:43;;;;;;;;;;;18.50;99.90;;;;;;5063150;28;19980;-64
2022/06/05 07:25:10;;;;;;;;;;;18.50;99.90;;;;;;5062912;28;19952;-65
2022/06/05 07:27:37;;;;;;;;;;;18.40;99.90;;;;;;5062533;28;19945;-66
2022/06/05 07:30:06;;;;;;;;;;;18.40;99.90;;;;;;5059485;28;20113;-64
2022/06/05 07:32:34;;;;;;;;;;;18.40;99.90;;;;;;5062850;28;20255;-65
2022/06/05 07:35:01;;;;;;;;;;;18.20;99.90;;;;;;5062681;28;19951;-64
2022/06/05 07:37:27;;;;;;;;;;;18.20;99.90;;;;;;5062391;28;20212;-64
2022/06/05 07:39:55;;;;;;;;;;;18.10;99.90;;;;;;5063759;28;19921;-64
2022/06/05 07:42:22;;;;;;;;;;;18.10;99.90;;;;;;5066225;28;20171;-64
2022/06/05 07:44:49;;;;;;;;;;;18.10;99.90;;;;;;5066165;28;19967;-64
2022/06/05 07:47:15;;;;;;;;;;;18.10;99.90;;;;;;5053532;28;19959;-64
2022/06/05 07:49:42;;;;;;;;;;;18.10;99.90;;;;;;5059372;28;20173;-65
2022/06/05 07:54:57;;;;;;;;;;;18.00;99.90;;;;;;5066054;28;19963;-65
2022/06/05 07:57:23;;;;;;;;;;;17.90;99.90;;;;;;5060953;28;19929;-65
2022/06/05 07:59:50;;;;;;;;;;;17.90;99.90;;;;;;5065602;28;19921;-64
2022/06/05 08:02:19;;;;;;;;;;;17.90;99.90;;;;;;5065849;28;20208;-64
2022/06/05 08:04:46;;;;;;;;;;;17.90;99.90;;;;;;5063530;28;19943;-66
2022/06/05 08:07:13;;;;;;;;;;;17.80;99.90;;;;;;5061901;28;19992;-67
2022/06/05 08:09:41;;;;;;;;;;;17.80;99.90;;;;;;5058601;28;19948;-66
2022/06/05 08:12:10;;;;;;;;;;;17.80;99.90;;;;;;5078510;28;20182;-66
2022/06/05 08:14:37;;;;;;;;;;;17.80;99.90;;;;;;5054128;28;19987;-66
2022/06/05 08:17:05;;;;;;;;;;;17.80;99.90;;;;;;5058314;28;19929;-66
2022/06/05 08:19:31;;;;;;;;;;;17.90;99.90;;;;;;5055970;28;19920;-65
2022/06/05 08:21:58;;;;;;;;;;;17.80;99.90;;;;;;5059321;28;19952;-66
2022/06/05 08:24:25;;;;;;;;;;;17.80;99.90;;;;;;5064176;28;19924;-67
2022/06/05 08:26:52;;;;;;;;;;;17.80;99.90;;;;;;5063815;28;19928;-67
2022/06/05 08:29:21;;;;;;;;;;;17.90;99.90;;;;;;5066680;28;19921;-67
2022/06/05 08:31:47;;;;;;;;;;;17.80;99.90;;;;;;5065306;28;19939;-66
2022/06/05 08:34:14;;;;;;;;;;;17.80;99.90;;;;;;5065182;28;19948;-67
2022/06/05 08:36:41;;;;;;;;;;;17.70;99.90;;;;;;5061725;28;19921;-67
2022/06/05 08:42:02;;;;;;;;;;;17.70;99.90;;;;;;5063996;28;19963;-67
2022/06/05 08:44:36;;;;;;;;;;;17.60;99.90;;;;;;5064343;28;19928;-68
2022/06/05 08:47:06;;;;;;;;;;;17.60;99.90;;;;;;5057237;28;20111;-67
2022/06/05 08:49:37;;;;;;;;;;;17.70;99.90;;;;;;5064848;28;19952;-66
2022/06/05 08:52:11;;;;;;;;;;;17.60;99.90;;;;;;5065362;28;19920;-67
2022/06/05 08:54:39;;;;;;;;;;;17.60;99.90;;;;;;5057870;28;19967;-67
2022/06/05 08:57:11;;;;;;;;;;;17.60;99.90;;;;;;5060926;28;19952;-68
2022/06/05 08:59:42;;;;;;;;;;;17.60;99.90;;;;;;5063601;28;19959;-67
2022/06/05 09:02:17;;;;;;;;;;;17.60;99.90;;;;;;5061561;28;20282;-66
2022/06/05 09:04:49;;;;;;;;;;;17.60;99.90;;;;;;5078927;28;20085;-66
2022/06/05 09:07:17;;;;;;;;;;;17.60;99.90;;;;;;5064977;28;19925;-66
2022/06/05 09:09:46;;;;;;;;;;;17.60;99.90;;;;;;5048498;28;19943;-66
2022/06/05 09:12:17;;;;;;;;;;;17.60;99.90;;;;;;5061805;28;19921;-66
2022/06/05 09:14:47;;;;;;;;;;;17.60;99.90;;;;;;5045151;28;19921;-66
2022/06/05 09:17:16;;;;;;;;;;;17.60;99.90;;;;;;5044516;28;19920;-65
2022/06/05 09:19:43;;;;;;;;;;;17.60;99.90;;;;;;5044281;28;20181;-66
2022/06/05 09:22:16;;;;;;;;;;;17.60;99.90;;;;;;5046150;28;19922;-66
2022/06/05 09:24:51;;;;;;;;;;;17.60;99.90;;;;;;5045072;28;19921;-66
2022/06/05 09:27:23;;;;;;;;;;;17.60;99.90;;;;;;5051028;28;19956;-65
2022/06/05 09:29:53;;;;;;;;;;;17.60;99.90;;;;;;5064472;28;19940;-66
2022/06/05 09:32:30;;;;;;;;;;;17.60;99.90;;;;;;5064864;28;19927;-66
2022/06/05 09:34:57;;;;;;;;;;;17.50;99.90;;;;;;5064200;28;19920;-66
2022/06/05 09:37:26;;;;;;;;;;;17.50;99.90;;;;;;5060371;28;19948;-66
2022/06/05 09:39:54;;;;;;;;;;;17.50;99.90;;;;;;5063759;28;19920;-66
2022/06/05 09:42:33;;;;;;;;;;;17.50;99.90;;;;;;5072460;23;19952;-92
2022/06/05 09:45:30;;;;;;;;;;;17.60;99.90;;;;;;5050629;28;19981;-92
2022/06/05 09:48:02;;;;;;;;;;;17.50;99.90;;;;;;5006145;28;20101;-92
2022/06/05 09:50:30;;;;;;;;;;;17.50;99.90;;;;;;5046837;28;19924;-89
2022/06/05 09:52:58;;;;;;;;;;;17.50;99.90;;;;;;5070112;28;19921;-92
2022/06/05 09:55:31;;;;;;;;;;;17.50;99.90;;;;;;5068138;28;20122;-90
2022/06/05 10:00:48;;;;;;;;;;;17.60;99.90;;;;;;5068401;28;19939;-88
2022/06/05 10:03:19;;;;;;;;;;;17.50;99.90;;;;;;5068569;28;19929;-88
2022/06/05 10:06:06;;;;;;;;;;;17.50;99.90;;;;;;5065345;28;19928;-88
2022/06/05 10:08:38;;;;;;;;;;;17.40;99.90;;;;;;5056603;28;19920;-89
2022/06/05 10:11:09;;;;;;;;;;;17.20;99.90;;;;;;5066898;28;19951;-90
2022/06/05 10:13:44;;;;;;;;;;;16.90;99.90;;;;;;5068965;28;19943;-92
2022/06/05 10:16:14;;;;;;;;;;;16.80;99.90;;;;;;5065215;28;19921;-89
2022/06/05 10:18:48;;;;;;;;;;;16.80;99.90;;;;;;5065792;28;19948;-89
2022/06/05 10:21:20;;;;;;;;;;;16.80;99.90;;;;;;5063547;28;19936;-89
2022/06/05 10:23:50;;;;;;;;;;;16.90;99.90;;;;;;5064355;28;19925;-89
2022/06/05 10:26:23;;;;;;;;;;;17.10;99.90;;;;;;5065034;28;19921;-87
2022/06/05 10:28:52;;;;;;;;;;;17.20;99.90;;;;;;5062245;28;20208;-88
2022/06/05 10:31:24;;;;;;;;;;;17.30;99.90;;;;;;5055105;28;20156;-89
2022/06/05 10:33:55;;;;;;;;;;;17.50;99.90;;;;;;5056863;28;20188;-89
2022/06/05 10:36:23;;;;;;;;;;;17.80;99.90;;;;;;5063833;28;19928;-88
2022/06/05 10:38:55;;;;;;;;;;;18.10;99.90;;;;;;5058876;28;19951;-88
2022/06/05 10:41:25;;;;;;;;;;;18.40;99.90;;;;;;5064253;28;19988;-89
2022/06/05 10:44:04;;;;;;;;;;;18.70;99.90;;;;;;5063382;28;19928;-89
2022/06/05 10:46:33;;;;;;;;;;;18.90;99.90;;;;;;5058934;28;20127;-89
2022/06/05 10:49:09;;;;;;;;;;;19.20;99.90;;;;;;5064678;28;20188;-89
2022/06/05 10:51:40;;;;;;;;;;;19.40;99.90;;;;;;5063341;28;19928;-90
2022/06/05 10:54:22;;;;;;;;;;;19.50;99.90;;;;;;5063491;28;19920;-89
2022/06/05 10:56:50;;;;;;;;;;;19.60;99.90;;;;;;5063668;28;19940;-89
2022/06/05 10:59:19;;;;;;;;;;;19.70;99.90;;;;;;5057947;28;19921;-92
2022/06/05 11:01:54;;;;;;;;;;;19.80;99.90;;;;;;5066780;28;19936;-91
2022/06/05 11:04:30;;;;;;;;;;;19.70;99.90;;;;;;5065859;28;19928;-93
2022/06/05 11:07:00;;;;;;;;;;;19.80;99.90;;;;;;5055901;28;19920;-90
2022/06/05 11:09:36;;;;;;;;;;;19.80;99.90;;;;;;5066281;28;19932;-89
2022/06/05 11:14:54;;;;;;;;;;;20.20;99.90;;;;;;5065298;28;20234;-91
2022/06/05 11:17:24;;;;;;;;;;;20.40;99.90;;;;;;5068622;28;19925;-90
2022/06/05 11:19:56;;;;;;;;;;;20.70;99.90;;;;;;5070043;28;19928;-90
2022/06/05 11:22:23;;;;;;;;;;;21.00;99.90;;;;;;5070114;28;19943;-89
2022/06/05 11:24:51;;;;;;;;;;;21.20;99.90;;;;;;5069911;28;19944;-90
2022/06/05 11:27:25;;;;;;;;;;;21.30;99.90;;;;;;5070418;28;20128;-89
2022/06/05 11:29:56;;;;;;;;;;;21.40;99.90;;;;;;5070728;28;20208;-90
2022/06/05 11:32:28;;;;;;;;;;;21.50;99.90;;;;;;5069634;28;19998;-90
2022/06/05 11:35:00;;;;;;;;;;;21.60;99.90;;;;;;5070620;28;20131;-90
2022/06/05 11:37:43;;;;;;;;;;;21.50;99.90;;;;;;5070465;28;19940;-89
2022/06/05 11:40:15;;;;;;;;;;;21.30;99.90;;;;;;5070739;28;19928;-88
2022/06/05 11:42:46;;;;;;;;;;;21.30;99.90;;;;;;5070101;28;19952;-90
2022/06/05 11:45:27;;;;;;;;;;;21.30;99.90;;;;;;5070016;28;19928;-89
2022/06/05 11:47:59;;;;;;;;;;;21.30;99.90;;;;;;5069858;28;19928;-89
2022/06/05 11:50:29;;;;;;;;;;;21.20;99.90;;;;;;5070194;28;20231;-89
2022/06/05 11:53:03;;;;;;;;;;;21.30;99.90;;;;;;5070393;28;19920;-89
2022/06/05 11:55:31;;;;;;;;;;;21.30;99.90;;;;;;5070075;28;19929;-89
2022/06/05 11:58:01;;;;;;;;;;;21.40;99.90;;;;;;5070035;28;19921;-90
2022/06/05 12:00:31;;;;;;;;;;;21.50;99.90;;;;;;5069914;28;20128;-90
2022/06/05 12:03:01;;;;;;;;;;;21.50;99.90;;;;;;5069457;28;20234;-89
2022/06/05 12:05:32;;;;;;;;;;;21.50;99.90;;;;;;5068719;28;19921;-90
2022/06/05 12:08:02;;;;;;;;;;;21.60;99.90;;;;;;5069351;28;19927;-89
2022/06/05 12:10:29;;;;;;;;;;;21.60;99.90;;;;;;5069293;28;19921;-89
2022/06/05 12:13:02;;;;;;;;;;;21.60;99.90;;;;;;5068879;28;19921;-89
2022/06/05 12:15:33;;;;;;;;;;;21.60;99.90;;;;;;5068561;28;19921;-89
2022/06/05 12:18:02;;;;;;;;;;;21.60;99.90;;;;;;5069959;28;20131;-89
2022/06/05 12:20:35;;;;;;;;;;;21.70;99.90;;;;;;5069037;28;19921;-90
2022/06/05 12:23:05;;;;;;;;;;;21.60;99.90;;;;;;5067705;28;19920;-89
2022/06/05 12:25:36;;;;;;;;;;;21.70;99.90;;;;;;5067431;28;19950;-88
2022/06/05 12:28:07;;;;;;;;;;;21.60;99.90;;;;;;5068222;28;19943;-90
2022/06/05 12:30:37;;;;;;;;;;;21.50;99.90;;;;;;5068053;28;19921;-88
2022/06/05 12:33:07;;;;;;;;;;;21.50;99.90;;;;;;5068080;28;19940;-89
2022/06/05 12:35:36;;;;;;;;;;;21.50;99.90;;;;;;5068088;28;19920;-90
2022/06/05 12:38:14;;;;;;;;;;;21.40;99.90;;;;;;5069145;28;19921;-88
2022/06/05 12:40:44;;;;;;;;;;;21.40;99.90;;;;;;5069221;28;20141;-89
2022/06/05 12:43:14;;;;;;;;;;;21.20;99.90;;;;;;5067942;28;19921;-88
2022/06/05 12:45:42;;;;;;;;;;;21.10;99.90;;;;;;5067711;28;20035;-89
2022/06/05 12:48:13;;;;;;;;;;;21.00;99.90;;;;;;5067599;28;19921;-90
2022/06/05 12:50:44;;;;;;;;;;;20.80;99.90;;;;;;5067330;28;19940;-88
2022/06/05 12:53:14;;;;;;;;;;;20.70;99.90;;;;;;5067878;28;20226;-88
2022/06/05 12:55:43;;;;;;;;;;;20.70;99.90;;;;;;5067193;28;19955;-88
2022/06/05 12:58:15;;;;;;;;;;;20.60;99.90;;;;;;5067295;28;20128;-89
2022/06/05 13:00:47;;;;;;;;;;;20.60;99.90;;;;;;5067325;28;19929;-89
2022/06/05 13:03:23;;;;;;;;;;;20.60;99.90;;;;;;5068284;28;19920;-89
2022/06/05 13:05:54;;;;;;;;;;;20.60;99.90;;;;;;5072786;28;19921;-89
2022/06/05 13:08:24;;;;;;;;;;;20.50;99.90;;;;;;5068475;28;19929;-89
2022/06/05 13:10:54;;;;;;;;;;;20.50;99.90;;;;;;5067110;28;19920;-89
2022/06/05 13:13:29;;;;;;;;;;;20.40;99.90;;;;;;5066718;28;19921;-89
2022/06/05 13:15:57;;;;;;;;;;;20.40;99.90;;;;;;5066802;28;19944;-89
2022/06/05 13:18:29;;;;;;;;;;;20.40;99.90;;;;;;5067388;28;19966;-89
2022/06/05 13:21:02;;;;;;;;;;;20.30;99.90;;;;;;5067090;28;20235;-89
2022/06/05 13:23:33;;;;;;;;;;;20.30;99.90;;;;;;5066695;28;20175;-89
2022/06/05 13:26:03;;;;;;;;;;;20.30;99.90;;;;;;5066850;28;19921;-89
2022/06/05 13:28:39;;;;;;;;;;;20.30;99.90;;;;;;5067842;28;19920;-89
2022/06/05 13:31:08;;;;;;;;;;;20.30;99.90;;;;;;5079674;22;19921;-66
2022/06/05 13:33:38;;;;;;;;;;;20.30;99.90;;;;;;5044325;28;19988;-66
2022/06/05 13:36:08;;;;;;;;;;;20.20;99.90;;;;;;5044906;28;19928;-66
2022/06/05 13:38:42;;;;;;;;;;;20.20;99.90;;;;;;5044198;28;19921;-66
2022/06/05 13:41:12;;;;;;;;;;;20.20;99.90;;;;;;5044753;28;20254;-66
2022/06/05 13:43:40;;;;;;;;;;;20.10;99.90;;;;;;5056041;23;19909;-67
2022/06/05 13:46:12;;;;;;;;;;;20.00;99.90;;;;;;5084162;28;19920;-67
2022/06/05 13:48:42;;;;;;;;;;;20.00;99.90;;;;;;5084825;28;19920;-66
2022/06/05 13:51:14;;;;;;;;;;;19.90;99.90;;;;;;5084526;28;19921;-67
2022/06/05 13:53:42;;;;;;;;;;;19.90;99.90;;;;;;5084312;28;19952;-67
2022/06/05 13:56:16;;;;;;;;;;;19.80;99.90;;;;;;5084021;28;20211;-67
2022/06/05 13:58:44;;;;;;;;;;;19.70;99.90;;;;;;5084484;28;19924;-67
2022/06/05 14:01:14;;;;;;;;;;;19.70;99.90;;;;;;5084277;28;19927;-67
2022/06/05 14:03:43;;;;;;;;;;;19.70;99.90;;;;;;5084550;28;19966;-67
2022/06/05 14:06:20;;;;;;;;;;;19.60;99.90;;;;;;5083855;28;19971;-67
2022/06/05 14:08:53;;;;;;;;;;;19.50;99.90;;;;;;5084304;28;19920;-67
2022/06/05 14:11:21;;;;;;;;;;;19.40;99.90;;;;;;5084112;28;19987;-67
2022/06/05 14:13:50;;;;;;;;;;;19.30;99.90;;;;;;5084075;28;19920;-66
2022/06/05 14:16:17;;;;;;;;;;;19.30;99.90;;;;;;5083902;28;19921;-67
2022/06/05 14:18:46;;;;;;;;;;;19.20;99.90;;;;;;5083971;28;19948;-67
2022/06/05 14:21:14;;;;;;;;;;;19.20;99.90;;;;;;5083786;28;19920;-67
2022/06/05 14:23:45;;;;;;;;;;;19.30;99.90;;;;;;5082929;28;19926;-67
2022/06/05 14:26:12;;;;;;;;;;;19.30;99.90;;;;;;5083734;28;19971;-67
2022/06/05 14:28:40;;;;;;;;;;;19.40;99.90;;;;;;5083784;28;19920;-66
2022/06/05 14:31:11;;;;;;;;;;;19.40;99.90;;;;;;5083727;28;19963;-66
2022/06/05 14:33:40;;;;;;;;;;;19.40;99.90;;;;;;5083633;28;19927;-67
2022/06/05 14:36:07;;;;;;;;;;;19.50;99.90;;;;;;5083815;28;19924;-67
2022/06/05 14:38:37;;;;;;;;;;;19.50;99.90;;;;;;5083826;28;20123;-67
2022/06/05 14:41:10;;;;;;;;;;;19.50;99.90;;;;;;5083441;28;19921;-67
2022/06/05 14:43:40;;;;;;;;;;;19.40;99.90;;;;;;5083474;28;20027;-67
2022/06/05 14:46:15;;;;;;;;;;;19.40;99.90;;;;;;5083163;28;19956;-67